Impacts TAF Board
For situational awareness. Not to be used for flight planning purposes.
IDs:

KFMN - Farmington/Four Corn, NM, US

Issued at 1736 UTC 08 Aug 2020
Updated at 2153 UTC 08 Aug 2020
Potential Impact None Slight Moderate High
Time2053Z 08/22Z 08/23Z 09/00Z 09/01Z 09/02Z 09/03Z 09/04Z 09/05Z 09/06Z 09/07Z 09/08Z 09/09Z 09/10Z>>
Type OBS PRVL PRVL PRVL PRVL PRVL PRVL PRVL PRVL PRVL PRVL PRVL PRVL PRVL
VIS 10 >6 >6 >6 >6 >6 >6 >6 >6 >6 >6 >6 >6 >6
CIG -- -- -- -- -- -- -- -- -- -- -- -- -- --
Cover CLR FEW FEW FEW FEW SCT SCT SCT SCT FEW FEW FEW FEW FEW
FltCat VFR VFR VFR VFR VFR VFR VFR VFR VFR VFR VFR VFR VFR VFR
WX -- -- -- -- -- -- -- -- -- -- -- -- -- --
WDir 280 270 270 270 270 300 300 300 300 VRB VRB VRB VRB VRB
WSpd 7 11 11 11 11 8 8 8 8 5 5 5 5 5
WGst -- 19 19 19 19 -- -- -- -- -- -- -- -- --
Raw TAF
KFMN 081736Z 0818/0918 24007KT P6SM SKC
  FM081900 27011G19KT P6SM FEW120
  FM090200 30008KT P6SM SCT120
  FM090600 VRB05KT P6SM FEW120
  FM091700 23005KT P6SM FEW120


Raw METAR
KFMN 082053Z 28007KT 10SM CLR 33/M01 A3019 RMK AO2 SLP152 T03281006 56016
KFMN 081953Z 28015G22KT 10SM CLR 33/M01 A3021 RMK AO2 PK WND 26027/1918 SLP151 T03331011
KFMN 081853Z 32009G18KT 10SM CLR 33/M02 A3023 RMK AO2 SLP158 T03281017

METAR Board
Radar Display
Forecast Discussion
For situational awareness. Not to be used for flight planning purposes.